createdAt,value
2018-12-15T00:00:09.289Z,103318.57
2018-12-15T00:02:39.139Z,103314.94
2018-12-15T00:05:08.982Z,103315.45
2018-12-15T00:07:38.565Z,103321.95
2018-12-15T00:10:08.544Z,103326.55
2018-12-15T00:12:37.605Z,103325.25
2018-12-15T00:15:08.639Z,103319.98
2018-12-15T00:17:38.063Z,103318.96
2018-12-15T00:20:08.172Z,103320.95
2018-12-15T00:22:37.642Z,103319.33
2018-12-15T00:25:06.946Z,103312.83
2018-12-15T00:27:35.937Z,103318.91
2018-12-15T00:30:06.402Z,103321.34
2018-12-15T00:32:36.386Z,103320.03
2018-12-15T00:35:06.315Z,103319.72
2018-12-15T00:37:35.466Z,103321.06
2018-12-15T00:40:05.389Z,103327.42
2018-12-15T00:42:35.306Z,103323.05
2018-12-15T00:45:04.814Z,103324.34
2018-12-15T00:47:34.606Z,103325.19
2018-12-15T00:50:04.544Z,103322.08
2018-12-15T00:52:33.812Z,103328.50
2018-12-15T00:55:03.008Z,103334.86
2018-12-15T00:57:32.424Z,103331.09
2018-12-15T01:00:01.860Z,103331.58
2018-12-15T01:02:31.401Z,103305.59
2018-12-15T01:05:00.795Z,103325.90
2018-12-15T01:07:30.280Z,103324.41
2018-12-15T01:09:59.582Z,103328.37
2018-12-15T01:12:29.185Z,103330.61
2018-12-15T01:14:58.232Z,103332.39
2018-12-15T01:17:27.992Z,103331.66
2018-12-15T01:19:57.359Z,103331.23
2018-12-15T01:22:26.836Z,103331.30
2018-12-15T01:24:56.129Z,103330.74
2018-12-15T01:27:25.286Z,103324.67
2018-12-15T01:29:55.006Z,103325.64
2018-12-15T01:32:23.910Z,103319.08
2018-12-15T01:34:53.519Z,103318.86
2018-12-15T01:37:24.066Z,103311.97
2018-12-15T01:39:53.723Z,103318.17
2018-12-15T01:42:23.230Z,103314.15
2018-12-15T01:44:52.810Z,103311.84
2018-12-15T01:47:26.963Z,103319.22
2018-12-15T01:49:54.012Z,103314.80
2018-12-15T01:52:23.685Z,103314.58
2018-12-15T01:54:52.990Z,103303.83
2018-12-15T01:57:22.465Z,103305.06
2018-12-15T01:59:51.753Z,103310.62
2018-12-15T02:02:20.953Z,103311.50
2018-12-15T02:04:50.768Z,103306.50
2018-12-15T02:07:20.332Z,103306.79
2018-12-15T02:09:49.708Z,103302.83
2018-12-15T02:12:19.080Z,103304.42
2018-12-15T02:14:48.393Z,103302.95
2018-12-15T02:17:17.876Z,103306.02
2018-12-15T02:19:47.338Z,103305.11
2018-12-15T02:22:16.995Z,103297.93
2018-12-15T02:24:46.604Z,103298.22
2018-12-15T02:27:16.041Z,103292.22
2018-12-15T02:29:46.089Z,103297.24
2018-12-15T02:32:15.622Z,103297.16
2018-12-15T02:34:45.022Z,103305.92
2018-12-15T02:37:14.703Z,103305.34
2018-12-15T02:39:43.837Z,103301.83
2018-12-15T02:42:13.033Z,103298.16
2018-12-15T02:44:42.158Z,103301.84
2018-12-15T02:47:11.282Z,103301.37
2018-12-15T02:49:40.629Z,103297.54
2018-12-15T02:52:09.804Z,103303.14
2018-12-15T02:54:39.148Z,103303.69
2018-12-15T02:57:08.326Z,103301.69
2018-12-15T02:59:37.443Z,103302.27
2018-12-15T03:02:06.640Z,103309.25
2018-12-15T03:04:35.615Z,103295.71
2018-12-15T03:07:05.318Z,103299.09
2018-12-15T03:09:34.647Z,103305.28
2018-12-15T03:12:03.630Z,103294.48
2018-12-15T03:14:32.603Z,103295.04
2018-12-15T03:17:07.002Z,103297.77
2018-12-15T03:19:36.313Z,103299.44
2018-12-15T03:22:05.979Z,103293.95
2018-12-15T03:24:35.164Z,103293.88
2018-12-15T03:27:04.587Z,103290.30
2018-12-15T03:29:33.691Z,103294.17
2018-12-15T03:32:03.147Z,103304.48
2018-12-15T03:34:32.162Z,103291.66
2018-12-15T03:37:01.263Z,103293.03
2018-12-15T03:39:30.694Z,103309.45
2018-12-15T03:41:59.899Z,103310.66
2018-12-15T03:44:29.210Z,103311.63
2018-12-15T03:46:58.372Z,103302.14
2018-12-15T03:49:27.834Z,103298.08
2018-12-15T03:51:56.874Z,103300.31
2018-12-15T03:54:26.008Z,103299.61
2018-12-15T03:56:54.909Z,103306.51
2018-12-15T03:59:24.206Z,103296.12
2018-12-15T04:01:53.250Z,103303.91
2018-12-15T04:04:22.579Z,103311.55
2018-12-15T04:06:52.253Z,103308.47
2018-12-15T04:09:21.628Z,103310.77
2018-12-15T04:11:50.901Z,103308.95
2018-12-15T04:14:20.198Z,103312.93
2018-12-15T04:16:49.316Z,103311.63
2018-12-15T04:19:18.455Z,103309.74
2018-12-15T04:21:47.498Z,103306.59
2018-12-15T04:24:16.764Z,103308.33
2018-12-15T04:26:46.076Z,103316.90
2018-12-15T04:29:15.294Z,103309.17
2018-12-15T04:31:44.397Z,103311.33
2018-12-15T04:34:13.412Z,103316.16
2018-12-15T04:36:42.745Z,103312.88
2018-12-15T04:39:11.826Z,103312.70
2018-12-15T04:41:41.066Z,103312.84
2018-12-15T04:44:10.312Z,103305.65
2018-12-15T04:46:39.941Z,103308.17
2018-12-15T04:49:09.254Z,103292.52
2018-12-15T04:51:38.744Z,103298.56
2018-12-15T04:54:07.943Z,103290.37
2018-12-15T04:56:37.349Z,103301.73
2018-12-15T04:59:06.823Z,103303.64
2018-12-15T05:01:35.758Z,103307.38
2018-12-15T05:04:05.099Z,103311.43
2018-12-15T05:06:34.016Z,103307.24
2018-12-15T05:09:04.161Z,103304.50
2018-12-15T05:11:33.303Z,103306.64
2018-12-15T05:14:02.333Z,103310.26
2018-12-15T05:16:31.329Z,103310.19
2018-12-15T05:19:00.662Z,103306.36
2018-12-15T05:21:30.235Z,103312.34
2018-12-15T05:23:59.947Z,103314.62
2018-12-15T05:26:28.992Z,103315.75
2018-12-15T05:28:58.006Z,103316.06
2018-12-15T05:31:27.497Z,103311.58
2018-12-15T05:33:56.792Z,103313.16
2018-12-15T05:36:25.957Z,103309.18
2018-12-15T05:38:54.890Z,103308.50
2018-12-15T05:41:23.684Z,103307.59
2018-12-15T05:43:52.820Z,103323.54
2018-12-15T05:46:22.127Z,103310.87
2018-12-15T05:48:51.003Z,103305.98
2018-12-15T05:51:20.248Z,103310.81
2018-12-15T05:53:49.444Z,103300.80
2018-12-15T05:56:18.702Z,103301.02
2018-12-15T05:58:49.014Z,103295.67
2018-12-15T06:01:18.011Z,103298.20
2018-12-15T06:03:47.110Z,103304.91
2018-12-15T06:06:16.305Z,103304.59
2018-12-15T06:08:45.440Z,103301.93
2018-12-15T06:11:14.465Z,103300.53
2018-12-15T06:13:43.775Z,103307.33
2018-12-15T06:16:12.765Z,103303.84
2018-12-15T06:18:41.898Z,103307.44
2018-12-15T06:21:11.039Z,103309.23
2018-12-15T06:23:40.818Z,103309.33
2018-12-15T06:26:10.291Z,103159.16
2018-12-15T06:28:39.531Z,103311.39
2018-12-15T06:31:08.654Z,103306.02
2018-12-15T06:33:37.634Z,103304.11
2018-12-15T06:36:06.957Z,103311.70
2018-12-15T06:38:36.432Z,103305.51
2018-12-15T06:41:05.854Z,103301.46
2018-12-15T06:43:35.107Z,103310.70
2018-12-15T06:46:04.434Z,103306.28
2018-12-15T06:48:38.202Z,103308.11
2018-12-15T06:51:05.826Z,103296.12
2018-12-15T06:53:34.987Z,103302.94
2018-12-15T06:56:05.067Z,103295.53
2018-12-15T06:58:34.055Z,103308.33
2018-12-15T07:01:04.257Z,103302.32
2018-12-15T07:03:33.861Z,103306.12
2018-12-15T07:06:03.150Z,103299.62
2018-12-15T07:08:32.154Z,103299.95
2018-12-15T07:11:02.702Z,103303.54
2018-12-15T07:13:31.799Z,103310.11
2018-12-15T07:16:02.004Z,103303.98
2018-12-15T07:18:32.515Z,103305.51
2018-12-15T07:21:02.370Z,103312.02
2018-12-15T07:23:31.674Z,103315.53
2018-12-15T07:26:00.916Z,103317.12
2018-12-15T07:28:29.914Z,103314.94
2018-12-15T07:30:58.890Z,103317.05
2018-12-15T07:33:28.086Z,103306.95
2018-12-15T07:35:57.109Z,103308.95
2018-12-15T07:38:26.134Z,103284.42
2018-12-15T07:40:55.281Z,103318.34
2018-12-15T07:43:24.604Z,103317.87
2018-12-15T07:45:53.781Z,103321.28
2018-12-15T07:48:23.174Z,103322.72
2018-12-15T07:50:52.767Z,103327.70
2018-12-15T07:53:22.157Z,103330.03
2018-12-15T07:55:51.362Z,103330.73
2018-12-15T07:58:21.112Z,103330.81
2018-12-15T08:00:50.804Z,103334.87
2018-12-15T08:03:19.999Z,103325.78
2018-12-15T08:05:49.334Z,103330.44
2018-12-15T08:08:18.908Z,103317.76
2018-12-15T08:11:56.189Z,103323.61
2018-12-15T08:14:25.876Z,103328.83
2018-12-15T08:16:55.289Z,103316.75
2018-12-15T08:19:24.616Z,103325.99
2018-12-15T08:21:53.824Z,103331.33
2018-12-15T08:24:23.100Z,103324.24
2018-12-15T08:26:52.392Z,103323.46
2018-12-15T08:29:22.540Z,103329.83
2018-12-15T08:31:51.780Z,103327.29
2018-12-15T08:34:20.886Z,103332.48
2018-12-15T08:36:50.361Z,103330.30
2018-12-15T08:39:19.583Z,103322.72
2018-12-15T08:41:48.755Z,103325.84
2018-12-15T08:44:17.784Z,103328.05
2018-12-15T08:46:47.238Z,103335.79
2018-12-15T08:49:16.840Z,103336.45
2018-12-15T08:51:46.305Z,103335.23
2018-12-15T08:54:15.756Z,103340.42
2018-12-15T08:56:44.774Z,103335.55
2018-12-15T08:59:13.869Z,103338.44
2018-12-15T09:01:42.924Z,103339.23
2018-12-15T09:04:11.954Z,103341.98
2018-12-15T09:06:41.954Z,103334.95
2018-12-15T09:09:10.867Z,103336.23
2018-12-15T09:11:39.924Z,103338.75
2018-12-15T09:14:09.227Z,103331.14
2018-12-15T09:16:38.821Z,103336.01
2018-12-15T09:19:11.297Z,103332.81
2018-12-15T09:21:39.480Z,103332.72
2018-12-15T09:24:09.557Z,103331.48
2018-12-15T09:26:39.426Z,103332.80
2018-12-15T09:29:08.858Z,103327.01
2018-12-15T09:31:38.050Z,103324.23
2018-12-15T09:34:07.497Z,103327.30
2018-12-15T09:36:36.691Z,103327.30
2018-12-15T09:39:08.109Z,103329.69
2018-12-15T09:41:37.430Z,103326.30
2018-12-15T09:44:07.500Z,103328.47
2018-12-15T09:46:37.149Z,103324.48
2018-12-15T09:49:06.113Z,103134.30
2018-12-15T09:51:35.189Z,103307.20
2018-12-15T09:54:04.632Z,103312.02
2018-12-15T09:56:33.649Z,103313.83
2018-12-15T09:59:02.669Z,103306.73
2018-12-15T10:01:32.144Z,103301.14
2018-12-15T10:04:01.142Z,103301.88
2018-12-15T10:06:30.176Z,103302.58
2018-12-15T10:08:59.088Z,103300.37
2018-12-15T10:11:27.975Z,103300.49
2018-12-15T10:13:57.488Z,103301.58
2018-12-15T10:16:27.114Z,103297.28
2018-12-15T10:18:56.161Z,103292.78
2018-12-15T10:21:25.676Z,103284.86
2018-12-15T10:23:54.717Z,103288.75
2018-12-15T10:26:23.692Z,103285.77
2018-12-15T10:28:53.156Z,103284.73
2018-12-15T10:31:27.561Z,103286.77
2018-12-15T10:33:57.011Z,103287.58
2018-12-15T10:36:26.280Z,103280.56
2018-12-15T10:38:55.402Z,103271.47
2018-12-15T10:41:24.720Z,103278.35
2018-12-15T10:43:53.785Z,103264.36
2018-12-15T10:46:22.948Z,103271.34
2018-12-15T10:48:52.379Z,103269.12
2018-12-15T10:51:21.524Z,103273.55
2018-12-15T10:53:50.576Z,103271.55
2018-12-15T10:56:19.899Z,103270.37
2018-12-15T10:58:49.091Z,103267.69
2018-12-15T11:01:22.864Z,103262.37
2018-12-15T11:03:52.111Z,103262.24
2018-12-15T11:06:21.354Z,103266.57
2018-12-15T11:08:50.995Z,103264.67
2018-12-15T11:11:20.020Z,103259.50
2018-12-15T11:13:49.140Z,103262.70
2018-12-15T11:16:18.795Z,103264.20
2018-12-15T11:18:48.257Z,103261.09
2018-12-15T11:21:17.305Z,103251.69
2018-12-15T11:23:46.718Z,103255.50
2018-12-15T11:26:15.912Z,103258.72
2018-12-15T11:28:45.253Z,103248.99
2018-12-15T11:31:14.285Z,103243.00
2018-12-15T11:33:43.622Z,103248.20
2018-12-15T11:36:12.529Z,103247.98
2018-12-15T11:38:42.078Z,103240.80
2018-12-15T11:41:11.765Z,103243.81
2018-12-15T11:43:41.275Z,103237.91
2018-12-15T11:46:10.530Z,103238.59
2018-12-15T11:48:39.654Z,103240.98
2018-12-15T11:51:08.682Z,103240.81
2018-12-15T11:53:38.058Z,103235.11
2018-12-15T11:56:07.304Z,103230.61
2018-12-15T11:58:37.017Z,103233.19
2018-12-15T12:01:06.617Z,103235.48
2018-12-15T12:03:35.626Z,103226.00
2018-12-15T12:06:05.389Z,103226.27
2018-12-15T12:08:34.511Z,103222.00
2018-12-15T12:11:03.920Z,103217.49
2018-12-15T12:13:33.388Z,103193.76
2018-12-15T12:19:34.693Z,103218.05
2018-12-15T12:22:03.814Z,103216.27
2018-12-15T12:24:33.844Z,103211.77
2018-12-15T12:27:03.107Z,103211.69
2018-12-15T12:29:32.322Z,103209.47
2018-12-15T12:32:01.399Z,103204.17
2018-12-15T12:34:30.557Z,103201.78
2018-12-15T12:36:59.771Z,103193.98
2018-12-15T12:39:28.886Z,103196.88
2018-12-15T12:41:58.014Z,103192.68
2018-12-15T12:44:27.270Z,103200.88
2018-12-15T12:46:56.797Z,103197.58
2018-12-15T12:49:26.384Z,103207.19
2018-12-15T12:51:55.401Z,103200.00
2018-12-15T12:54:24.472Z,103195.40
2018-12-15T12:56:53.666Z,103193.48
2018-12-15T12:59:23.258Z,103186.88
2018-12-15T13:01:52.293Z,103188.00
2018-12-15T13:04:21.288Z,103199.27
2018-12-15T13:06:51.410Z,103190.77
2018-12-15T13:09:21.028Z,103195.97
2018-12-15T13:11:50.241Z,103189.37
2018-12-15T13:14:19.337Z,103188.36
2018-12-15T13:16:48.951Z,103184.98
2018-12-15T13:19:18.383Z,103184.40
2018-12-15T13:21:47.434Z,103187.58
2018-12-15T13:24:17.090Z,103187.98
2018-12-15T13:26:46.578Z,103181.69
2018-12-15T13:29:16.103Z,103188.97
2018-12-15T13:31:45.274Z,103177.57
2018-12-15T13:34:14.753Z,103180.18
2018-12-15T13:36:44.080Z,103177.28
2018-12-15T13:39:13.510Z,103174.77
2018-12-15T13:41:42.732Z,103178.98
2018-12-15T13:44:12.813Z,103176.17
2018-12-15T13:46:41.880Z,103181.36
2018-12-15T13:49:11.733Z,103177.67
2018-12-15T13:51:41.409Z,103180.09
2018-12-15T13:54:11.011Z,103181.59
2018-12-15T13:56:40.597Z,103182.90
2018-12-15T13:59:10.278Z,103185.69
2018-12-15T14:01:40.534Z,103187.77
2018-12-15T14:04:10.144Z,103180.38
2018-12-15T14:06:40.517Z,103184.36
2018-12-15T14:09:10.371Z,103182.07
2018-12-15T14:11:39.756Z,103180.47
2018-12-15T14:14:10.381Z,103183.98
2018-12-15T14:16:40.107Z,103175.05
2018-12-15T14:19:09.657Z,103043.26
2018-12-15T14:21:39.931Z,103181.64
2018-12-15T14:24:10.120Z,103183.03
2018-12-15T14:26:40.111Z,103183.03
2018-12-15T14:29:09.719Z,103178.84
2018-12-15T14:31:39.184Z,103154.25
2018-12-15T14:34:08.661Z,103174.97
2018-12-15T14:36:38.652Z,103175.66
2018-12-15T14:39:08.685Z,103173.97
2018-12-15T14:41:38.611Z,103167.98
2018-12-15T14:44:08.722Z,103168.77
2018-12-15T14:46:38.628Z,103166.78
2018-12-15T14:49:08.520Z,103160.77
2018-12-15T14:51:38.364Z,103165.17
2018-12-15T14:54:08.117Z,103163.97
2018-12-15T14:56:37.387Z,103161.28
2018-12-15T14:59:07.008Z,103161.07
2018-12-15T15:01:36.985Z,103156.36
2018-12-15T15:04:06.003Z,103150.95
2018-12-15T15:06:35.284Z,103157.96
2018-12-15T15:09:07.445Z,103146.78
2018-12-15T15:11:36.973Z,103149.17
2018-12-15T15:14:06.151Z,103149.56
2018-12-15T15:16:35.758Z,103148.63
2018-12-15T15:19:06.487Z,103145.03
2018-12-15T15:21:35.789Z,103024.45
2018-12-15T15:24:05.249Z,103135.72
2018-12-15T15:26:36.190Z,103134.34
2018-12-15T15:29:06.196Z,103142.61
2018-12-15T15:31:35.694Z,103140.22
2018-12-15T15:34:05.348Z,103139.22
2018-12-15T15:36:35.093Z,103130.14
2018-12-15T15:39:05.891Z,103137.50
2018-12-15T15:41:35.427Z,103131.52
2018-12-15T15:44:05.187Z,103123.12
2018-12-15T15:46:34.504Z,103122.56
2018-12-15T15:49:04.163Z,103114.25
2018-12-15T15:51:33.660Z,103122.52
2018-12-15T15:54:02.813Z,103121.14
2018-12-15T15:56:32.418Z,103115.34
2018-12-15T15:59:01.669Z,103111.14
2018-12-15T16:01:31.212Z,103108.36
2018-12-15T16:04:00.933Z,103107.58
2018-12-15T16:06:30.645Z,103101.69
2018-12-15T16:09:00.273Z,103096.10
2018-12-15T16:11:32.419Z,103095.98
2018-12-15T16:14:01.530Z,103092.88
2018-12-15T16:16:37.283Z,103094.74
2018-12-15T16:19:06.751Z,103090.55
2018-12-15T16:21:36.843Z,103092.97
2018-12-15T16:24:08.549Z,103087.69
2018-12-15T16:26:37.925Z,103084.00
2018-12-15T16:29:07.582Z,103083.48
2018-12-15T16:31:37.568Z,103075.39
2018-12-15T16:34:07.389Z,103078.20
2018-12-15T16:36:36.477Z,103083.87
2018-12-15T16:39:08.413Z,103072.19
2018-12-15T16:41:42.244Z,103073.61
2018-12-15T16:44:08.938Z,103064.61
2018-12-15T16:46:38.692Z,103058.42
2018-12-15T16:49:08.022Z,103057.63
2018-12-15T16:51:37.994Z,103060.20
2018-12-15T16:54:07.947Z,103058.81
2018-12-15T16:56:37.404Z,103028.24
2018-12-15T16:59:06.682Z,103058.62
2018-12-15T17:01:36.546Z,103058.92
2018-12-15T17:04:06.204Z,103047.63
2018-12-15T17:06:35.944Z,103049.84
2018-12-15T17:09:09.420Z,103048.81
2018-12-15T17:11:38.628Z,103022.86
2018-12-15T17:14:08.450Z,103022.65
2018-12-15T17:16:38.338Z,103021.08
2018-12-15T17:19:07.824Z,103025.86
2018-12-15T17:21:37.015Z,103016.25
2018-12-15T17:24:07.008Z,103009.39
2018-12-15T17:26:36.580Z,103013.48
2018-12-15T17:29:06.222Z,103002.69
2018-12-15T17:31:35.908Z,102995.78
2018-12-15T17:34:06.178Z,103002.28
2018-12-15T17:36:35.296Z,102998.90
2018-12-15T17:39:06.412Z,103000.88
2018-12-15T17:41:35.884Z,103001.49
2018-12-15T17:44:05.127Z,103011.06
2018-12-15T17:46:34.887Z,102994.11
2018-12-15T17:49:03.971Z,103008.38
2018-12-15T17:51:32.909Z,103004.88
2018-12-15T17:54:02.272Z,103008.38
2018-12-15T17:56:31.305Z,103002.78
2018-12-15T17:59:00.539Z,103001.48
2018-12-15T18:01:30.526Z,102998.59
2018-12-15T18:04:00.040Z,103004.66
2018-12-15T18:06:29.289Z,103010.38
2018-12-15T18:08:58.694Z,103001.59
2018-12-15T18:11:27.584Z,103002.28
2018-12-15T18:13:57.083Z,102994.80
2018-12-15T18:16:26.299Z,102990.78
2018-12-15T18:18:56.093Z,103003.25
2018-12-15T18:21:25.961Z,103000.56
2018-12-15T18:23:55.178Z,102990.27
2018-12-15T18:26:24.251Z,102996.58
2018-12-15T18:28:53.942Z,102988.39
2018-12-15T18:31:23.555Z,102997.48
2018-12-15T18:33:53.756Z,102984.69
2018-12-15T18:36:23.408Z,102976.32
2018-12-15T18:38:52.854Z,102970.22
2018-12-15T18:41:22.114Z,102968.53
2018-12-15T18:43:51.110Z,102970.90
2018-12-15T18:46:20.490Z,102973.41
2018-12-15T18:48:49.804Z,102968.52
2018-12-15T18:51:19.237Z,102966.34
2018-12-15T18:53:48.856Z,102966.73
2018-12-15T18:56:18.006Z,102969.70
2018-12-15T18:58:46.983Z,102952.73
2018-12-15T19:01:16.540Z,102953.55
2018-12-15T19:03:45.538Z,102955.24
2018-12-15T19:06:15.072Z,102950.14
2018-12-15T19:08:44.768Z,102948.57
2018-12-15T19:11:14.307Z,102937.27
2018-12-15T19:13:44.350Z,102923.41
2018-12-15T19:16:14.362Z,102912.62
2018-12-15T19:18:43.738Z,102914.23
2018-12-15T19:21:13.409Z,102906.14
2018-12-15T19:23:43.080Z,102901.03
2018-12-15T19:26:12.007Z,102903.33
2018-12-15T19:28:41.415Z,102904.83
2018-12-15T19:31:10.961Z,102897.25
2018-12-15T19:33:40.461Z,102887.27
2018-12-15T19:36:10.115Z,102889.66
2018-12-15T19:38:39.879Z,102889.55
2018-12-15T19:41:09.212Z,102879.35
2018-12-15T19:43:38.472Z,102869.38
2018-12-15T19:46:08.366Z,102868.69
2018-12-15T19:48:37.922Z,102867.77
2018-12-15T19:51:07.276Z,102863.50
2018-12-15T19:53:36.847Z,102861.98
2018-12-15T19:56:06.356Z,102860.58
2018-12-15T19:58:35.614Z,102862.86
2018-12-15T20:01:05.225Z,102851.70
2018-12-15T20:03:34.809Z,102850.67
2018-12-15T20:06:04.103Z,102853.47
2018-12-15T20:08:33.676Z,102856.48
2018-12-15T20:11:03.119Z,102855.66
2018-12-15T20:13:33.036Z,102845.56
2018-12-15T20:16:02.586Z,102843.66
2018-12-15T20:18:32.257Z,102842.09
2018-12-15T20:21:01.941Z,102834.61
2018-12-15T20:23:31.822Z,102832.30
2018-12-15T20:26:01.324Z,102828.99
2018-12-15T20:28:30.734Z,102820.49
2018-12-15T20:31:00.017Z,102816.83
2018-12-15T20:33:29.358Z,102819.00
2018-12-15T20:35:59.125Z,102814.31
2018-12-15T20:38:28.746Z,102815.05
2018-12-15T20:40:58.098Z,102816.13
2018-12-15T20:43:27.572Z,102807.51
2018-12-15T20:45:56.936Z,102805.90
2018-12-15T20:48:26.174Z,102771.62
2018-12-15T20:50:55.583Z,102797.98
2018-12-15T20:53:24.850Z,102797.35
2018-12-15T20:55:54.505Z,102790.11
2018-12-15T20:58:24.453Z,102784.56
2018-12-15T21:00:54.013Z,102749.78
2018-12-15T21:03:23.234Z,102775.59
2018-12-15T21:05:52.458Z,102781.89
2018-12-15T21:08:22.525Z,102770.80
2018-12-15T21:10:51.862Z,102772.25
2018-12-15T21:13:21.293Z,102769.81
2018-12-15T21:15:53.618Z,102776.22
2018-12-15T21:18:23.510Z,102773.11
2018-12-15T21:20:52.424Z,102777.94
2018-12-15T21:23:22.223Z,102762.25
2018-12-15T21:25:51.516Z,102762.81
2018-12-15T21:28:20.809Z,102758.41
2018-12-15T21:30:50.160Z,102753.64
2018-12-15T21:33:19.684Z,102742.59
2018-12-15T21:35:49.029Z,102746.37
2018-12-15T21:38:18.570Z,102741.09
2018-12-15T21:40:47.795Z,102738.19
2018-12-15T21:43:17.134Z,102731.89
2018-12-15T21:45:46.743Z,102719.89
2018-12-15T21:48:16.247Z,102718.20
2018-12-15T21:50:45.401Z,102710.73
2018-12-15T21:53:15.119Z,102711.36
2018-12-15T21:55:44.389Z,102710.96
2018-12-15T21:58:13.463Z,102711.78
2018-12-15T22:00:42.895Z,102704.98
2018-12-15T22:03:12.194Z,102692.56
2018-12-15T22:05:41.480Z,102695.78
2018-12-15T22:08:10.837Z,102689.92
2018-12-15T22:10:39.983Z,102683.91
2018-12-15T22:13:09.148Z,102684.53
2018-12-15T22:15:39.063Z,102683.86
2018-12-15T22:18:08.406Z,102677.54
2018-12-15T22:20:38.010Z,102684.02
2018-12-15T22:23:07.863Z,102676.87
2018-12-15T22:25:37.346Z,102683.36
2018-12-15T22:28:06.714Z,102688.47
2018-12-15T22:30:36.259Z,102580.81
2018-12-15T22:33:05.914Z,102666.92
2018-12-15T22:35:35.305Z,102669.52
2018-12-15T22:38:04.841Z,102653.63
2018-12-15T22:40:34.212Z,102658.73
2018-12-15T22:43:03.452Z,102658.62
2018-12-15T22:45:33.125Z,102642.66
2018-12-15T22:48:02.247Z,102649.73
2018-12-15T22:50:31.486Z,102642.74
2018-12-15T22:53:00.992Z,102639.98
2018-12-15T22:55:30.200Z,102637.20
2018-12-15T22:57:59.530Z,102635.31
2018-12-15T23:00:31.273Z,102624.70
2018-12-15T23:03:00.579Z,102626.82
2018-12-15T23:05:29.917Z,102617.73
2018-12-15T23:07:59.656Z,102617.03
2018-12-15T23:10:28.912Z,102616.05
2018-12-15T23:12:58.494Z,102615.14
2018-12-15T23:15:27.904Z,102618.21
2018-12-15T23:17:57.224Z,102615.93
2018-12-15T23:20:27.350Z,102600.16
2018-12-15T23:22:57.026Z,102606.06
2018-12-15T23:25:26.511Z,102594.86
2018-12-15T23:27:55.804Z,102597.30
2018-12-15T23:30:25.253Z,102592.11
2018-12-15T23:32:54.564Z,102599.70
2018-12-15T23:35:24.396Z,102593.69
2018-12-15T23:37:54.030Z,102585.91
2018-12-15T23:40:23.189Z,102594.86
2018-12-15T23:42:52.410Z,102584.20
2018-12-15T23:45:22.256Z,102570.72
2018-12-15T23:47:51.570Z,102579.92
2018-12-15T23:50:20.849Z,102573.23
2018-12-15T23:52:50.204Z,102560.42
2018-12-15T23:55:20.878Z,102557.31
2018-12-15T23:57:50.607Z,102554.37
